< Cyclone 198112 1981 Season Cyclone 198114 >
Cyclone 198113 (OLGA)
General InformationTrack Information on Google MapsList of All Images || ResourceGoogle EarthGE AnimationAtom FeedGeoJSON
Detalied Best Track (Time Zone = UTC)
Year Month Day Hour Lat. Long. Pressure (hPa) Wind (kt) Class Image Chart
1981 4 5 00 -7.5 93.9 1002 0 0 Image --
1981 4 5 06 -7.6 93.8 1002 0 0 Image --
1981 4 5 12 -7.7 93.7 1001 0 0 Image --
1981 4 5 18 -7.8 93.6 1001 0 0 Image --
1981 4 6 00 -7.8 93.4 1000 0 0 Image --
1981 4 6 06 -7.9 93.2 999 0 0 Image --
1981 4 6 12 -8.0 93.0 998 0 0 Image --
1981 4 6 18 -8.1 92.9 997 0 0 Image --
1981 4 7 00 -8.2 92.8 996 0 0 Image --
1981 4 7 06 -8.5 92.5 995 0 0 Image --
1981 4 7 12 -8.8 92.2 993 0 0 Image --
1981 4 7 18 -9.0 92.1 991 0 0 Image --
1981 4 8 00 -9.2 92.0 988 0 0 Image --
1981 4 8 06 -9.7 91.8 984 0 0 Image --
1981 4 8 12 -10.1 91.5 980 0 0 Image --
1981 4 8 18 -10.4 91.2 976 0 0 Image --
1981 4 9 00 -10.7 90.9 970 0 0 Image --
1981 4 9 06 -11.1 90.6 964 0 0 Image --
1981 4 9 12 -11.5 90.4 958 0 0 Image --
1981 4 9 18 -12.4 90.1 953 0 0 Image --
1981 4 10 00 -13.1 89.8 946 0 0 Image --
1981 4 10 06 -13.8 89.5 942 0 0 Image --
1981 4 10 12 -14.3 89.2 940 0 0 Image --
1981 4 10 18 -15.4 88.5 945 0 0 Image --
1981 4 11 00 -16.6 87.7 954 0 0 Image --
1981 4 11 06 -17.8 87.1 961 0 0 Image --
1981 4 11 12 -19.1 87.0 969 0 0 Image --
1981 4 11 18 -20.4 87.1 974 0 0 Image --
1981 4 12 00 -21.9 87.1 978 0 0 Image --
1981 4 12 06 -23.5 87.1 981 0 0 Image --
1981 4 12 12 -24.8 88.3 984 0 0 Image --
1981 4 12 18 -25.7 89.3 986 0 0 Image --
1981 4 13 00 -27.6 90.6 988 0 0 Image --
1981 4 13 06 -28.7 93.9 990 0 0 Image --
1981 4 13 12 -28.9 97.8 992 0 0 Image --
1981 4 13 18 -30.2 102.0 993 0 0 Image --
1981 4 14 00 -30.5 105.4 994 0 0 Image --
1981 4 14 06 -30.2 107.6 996 0 0 Image --
1981 4 14 12 -29.4 109.8 997 0 0 Image --
1981 4 14 18 -28.5 110.7 998 0 0 Image --
1981 4 15 00 -27.5 111.0 1000 0 0 Image --
< Cyclone 198112 1981 Season Cyclone 198114 >

Help